sensor_id;sensor_type;location;lat;lon;timestamp;pressure;altitude;pressure_sealevel;temperature;humidity
80500;BME280;69823;54.120;-4.710;2023-06-24T00:01:08;100260.44;;;29.70;24.23
80500;BME280;69823;54.120;-4.710;2023-06-24T00:03:34;100259.79;;;29.66;24.24
80500;BME280;69823;54.120;-4.710;2023-06-24T00:06:00;100262.20;;;29.44;24.22
80500;BME280;69823;54.120;-4.710;2023-06-24T00:08:25;100261.94;;;29.67;24.22
80500;BME280;69823;54.120;-4.710;2023-06-24T00:10:51;100258.28;;;29.90;24.22
80500;BME280;69823;54.120;-4.710;2023-06-24T00:13:17;100260.13;;;29.66;24.22
80500;BME280;69823;54.120;-4.710;2023-06-24T00:15:42;100260.62;;;29.67;24.19
80500;BME280;69823;54.120;-4.710;2023-06-24T00:18:08;100258.90;;;29.44;24.19
80500;BME280;69823;54.120;-4.710;2023-06-24T00:20:34;100261.66;;;29.66;24.19
80500;BME280;69823;54.120;-4.710;2023-06-24T00:22:59;100264.20;;;29.65;24.20
80500;BME280;69823;54.120;-4.710;2023-06-24T00:25:25;100261.79;;;29.67;24.18
80500;BME280;69823;54.120;-4.710;2023-06-24T00:27:51;100258.94;;;29.67;24.16
80500;BME280;69823;54.120;-4.710;2023-06-24T00:30:16;100257.29;;;29.43;24.17
80500;BME280;69823;54.120;-4.710;2023-06-24T00:32:42;100259.26;;;29.42;24.16
80500;BME280;69823;54.120;-4.710;2023-06-24T00:35:09;100261.37;;;29.67;24.13
80500;BME280;69823;54.120;-4.710;2023-06-24T00:37:33;100260.77;;;29.65;24.15
80500;BME280;69823;54.120;-4.710;2023-06-24T00:39:59;100269.25;;;29.91;24.14
80500;BME280;69823;54.120;-4.710;2023-06-24T00:42:25;100266.61;;;29.66;24.13
80500;BME280;69823;54.120;-4.710;2023-06-24T00:44:50;100264.01;;;29.67;24.13
80500;BME280;69823;54.120;-4.710;2023-06-24T00:47:16;100267.83;;;29.65;24.13
80500;BME280;69823;54.120;-4.710;2023-06-24T00:49:42;100267.39;;;29.39;24.15
80500;BME280;69823;54.120;-4.710;2023-06-24T00:52:07;100267.68;;;29.61;24.15
80500;BME280;69823;54.120;-4.710;2023-06-24T00:54:33;100263.83;;;29.58;24.17
80500;BME280;69823;54.120;-4.710;2023-06-24T00:56:59;100270.56;;;29.52;24.21
80500;BME280;69823;54.120;-4.710;2023-06-24T00:59:24;100269.51;;;29.52;24.22
80500;BME280;69823;54.120;-4.710;2023-06-24T01:01:50;100270.16;;;29.75;24.22
80500;BME280;69823;54.120;-4.710;2023-06-24T01:04:16;100266.20;;;29.53;24.20
80500;BME280;69823;54.120;-4.710;2023-06-24T01:06:41;100265.23;;;29.51;24.20
80500;BME280;69823;54.120;-4.710;2023-06-24T01:09:07;100265.85;;;29.71;24.24
80500;BME280;69823;54.120;-4.710;2023-06-24T01:11:33;100268.09;;;29.49;24.22
80500;BME280;69823;54.120;-4.710;2023-06-24T01:13:58;100270.82;;;29.46;24.24
80500;BME280;69823;54.120;-4.710;2023-06-24T01:16:31;100270.65;;;29.47;24.23
80500;BME280;69823;54.120;-4.710;2023-06-24T01:18:55;100269.26;;;29.48;24.21
80500;BME280;69823;54.120;-4.710;2023-06-24T01:21:21;100270.01;;;29.42;24.26
80500;BME280;69823;54.120;-4.710;2023-06-24T01:23:53;100263.58;;;29.38;24.29
80500;BME280;69823;54.120;-4.710;2023-06-24T01:26:20;100265.31;;;29.56;24.34
80500;BME280;69823;54.120;-4.710;2023-06-24T01:33:33;100267.30;;;29.52;24.38
80500;BME280;69823;54.120;-4.710;2023-06-24T01:35:49;100267.28;;;29.28;24.37
80500;BME280;69823;54.120;-4.710;2023-06-24T01:38:22;100270.09;;;29.33;24.34
80500;BME280;69823;54.120;-4.710;2023-06-24T01:40:44;100269.27;;;29.33;24.32
80500;BME280;69823;54.120;-4.710;2023-06-24T01:43:09;100267.20;;;29.34;24.32
80500;BME280;69823;54.120;-4.710;2023-06-24T01:45:35;100269.04;;;29.36;24.29
80500;BME280;69823;54.120;-4.710;2023-06-24T01:48:00;100272.24;;;29.63;24.24
80500;BME280;69823;54.120;-4.710;2023-06-24T01:50:25;100272.13;;;29.38;24.25
80500;BME280;69823;54.120;-4.710;2023-06-24T01:52:50;100272.42;;;29.40;24.23
80500;BME280;69823;54.120;-4.710;2023-06-24T01:55:20;100273.88;;;29.61;24.24
80500;BME280;69823;54.120;-4.710;2023-06-24T01:57:41;100271.66;;;29.35;24.26
80500;BME280;69823;54.120;-4.710;2023-06-24T02:00:08;100274.93;;;29.35;24.26
80500;BME280;69823;54.120;-4.710;2023-06-24T02:02:32;100275.91;;;29.38;24.24
80500;BME280;69823;54.120;-4.710;2023-06-24T02:04:58;100278.52;;;29.39;24.21
80500;BME280;69823;54.120;-4.710;2023-06-24T02:07:24;100282.36;;;29.35;24.24
80500;BME280;69823;54.120;-4.710;2023-06-24T02:09:49;100279.95;;;29.58;24.25
80500;BME280;69823;54.120;-4.710;2023-06-24T02:12:15;100278.07;;;29.30;24.27
80500;BME280;69823;54.120;-4.710;2023-06-24T02:14:41;100277.34;;;29.23;24.34
80500;BME280;69823;54.120;-4.710;2023-06-24T02:17:08;100276.12;;;29.26;24.31
80500;BME280;69823;54.120;-4.710;2023-06-24T02:19:32;100274.54;;;29.26;24.32
80500;BME280;69823;54.120;-4.710;2023-06-24T02:21:58;100273.15;;;29.21;24.35
80500;BME280;69823;54.120;-4.710;2023-06-24T02:24:23;100275.69;;;29.20;24.35
80500;BME280;69823;54.120;-4.710;2023-06-24T02:26:49;100274.33;;;29.19;24.37
80500;BME280;69823;54.120;-4.710;2023-06-24T02:29:14;100276.07;;;29.44;24.34
80500;BME280;69823;54.120;-4.710;2023-06-24T02:31:40;100273.05;;;29.18;24.35
80500;BME280;69823;54.120;-4.710;2023-06-24T02:34:05;100271.70;;;29.66;24.35
80500;BME280;69823;54.120;-4.710;2023-06-24T02:36:31;100268.02;;;29.41;24.35
80500;BME280;69823;54.120;-4.710;2023-06-24T02:38:57;100263.18;;;29.18;24.35
80500;BME280;69823;54.120;-4.710;2023-06-24T02:41:22;100257.04;;;29.20;24.33
80500;BME280;69823;54.120;-4.710;2023-06-24T02:43:48;100253.14;;;29.17;24.35
80500;BME280;69823;54.120;-4.710;2023-06-24T02:46:14;100249.56;;;29.19;24.33
80500;BME280;69823;54.120;-4.710;2023-06-24T02:48:39;100248.83;;;29.15;24.35
80500;BME280;69823;54.120;-4.710;2023-06-24T02:51:06;100247.97;;;29.14;24.37
80500;BME280;69823;54.120;-4.710;2023-06-24T02:53:31;100247.59;;;29.37;24.37
80500;BME280;69823;54.120;-4.710;2023-06-24T02:55:56;100245.40;;;29.08;24.39
80500;BME280;69823;54.120;-4.710;2023-06-24T02:58:23;100245.38;;;29.12;24.37
80500;BME280;69823;54.120;-4.710;2023-06-24T03:00:48;100246.06;;;29.13;24.37
80500;BME280;69823;54.120;-4.710;2023-06-24T03:03:13;100244.95;;;29.32;24.39
80500;BME280;69823;54.120;-4.710;2023-06-24T03:05:39;100244.77;;;29.31;24.41
80500;BME280;69823;54.120;-4.710;2023-06-24T03:08:05;100251.31;;;29.10;24.38
80500;BME280;69823;54.120;-4.710;2023-06-24T03:10:30;100251.68;;;29.09;24.39
80500;BME280;69823;54.120;-4.710;2023-06-24T03:12:56;100250.39;;;29.34;24.37
80500;BME280;69823;54.120;-4.710;2023-06-24T03:15:22;100249.54;;;29.32;24.38
80500;BME280;69823;54.120;-4.710;2023-06-24T03:17:47;100252.43;;;29.09;24.37
80500;BME280;69823;54.120;-4.710;2023-06-24T03:20:13;100252.36;;;29.30;24.39
80500;BME280;69823;54.120;-4.710;2023-06-24T03:22:38;100254.62;;;29.31;24.38
80500;BME280;69823;54.120;-4.710;2023-06-24T03:25:05;100254.55;;;29.12;24.35
80500;BME280;69823;54.120;-4.710;2023-06-24T03:27:30;100251.84;;;29.40;24.30
80500;BME280;69823;54.120;-4.710;2023-06-24T03:29:55;100249.18;;;29.19;24.27
80500;BME280;69823;54.120;-4.710;2023-06-24T03:32:21;100243.90;;;29.18;24.26
80500;BME280;69823;54.120;-4.710;2023-06-24T03:34:47;100243.65;;;29.18;24.24
80500;BME280;69823;54.120;-4.710;2023-06-24T03:37:13;100245.05;;;29.42;24.24
80500;BME280;69823;54.120;-4.710;2023-06-24T03:39:38;100245.04;;;29.20;24.23
80500;BME280;69823;54.120;-4.710;2023-06-24T03:42:04;100245.96;;;29.46;24.21
80500;BME280;69823;54.120;-4.710;2023-06-24T03:44:30;100239.68;;;29.22;24.19
80500;BME280;69823;54.120;-4.710;2023-06-24T03:46:55;100240.31;;;29.22;24.19
80500;BME280;69823;54.120;-4.710;2023-06-24T03:49:21;100240.24;;;29.20;24.21
80500;BME280;69823;54.120;-4.710;2023-06-24T03:51:46;100238.19;;;29.17;24.23
80500;BME280;69823;54.120;-4.710;2023-06-24T03:54:12;100239.97;;;29.10;24.26
80500;BME280;69823;54.120;-4.710;2023-06-24T03:56:38;100237.92;;;29.14;24.25
80500;BME280;69823;54.120;-4.710;2023-06-24T03:59:03;100238.12;;;29.11;24.26
80500;BME280;69823;54.120;-4.710;2023-06-24T04:01:29;100244.62;;;29.07;24.28
80500;BME280;69823;54.120;-4.710;2023-06-24T04:03:55;100249.71;;;29.33;24.26
80500;BME280;69823;54.120;-4.710;2023-06-24T04:06:21;100249.81;;;29.12;24.23
80500;BME280;69823;54.120;-4.710;2023-06-24T04:08:46;100253.11;;;29.13;24.23
80500;BME280;69823;54.120;-4.710;2023-06-24T04:11:12;100255.91;;;29.16;24.21
80500;BME280;69823;54.120;-4.710;2023-06-24T04:13:38;100252.89;;;29.37;24.21
80500;BME280;69823;54.120;-4.710;2023-06-24T04:16:04;100255.91;;;29.37;24.23
80500;BME280;69823;54.120;-4.710;2023-06-24T04:18:29;100251.75;;;29.60;24.22
80500;BME280;69823;54.120;-4.710;2023-06-24T04:20:55;100246.33;;;29.09;24.23
80500;BME280;69823;54.120;-4.710;2023-06-24T04:23:20;100256.96;;;29.07;24.25
80500;BME280;69823;54.120;-4.710;2023-06-24T04:25:46;100258.78;;;29.33;24.23
80500;BME280;69823;54.120;-4.710;2023-06-24T04:28:12;100254.10;;;29.56;24.23
80500;BME280;69823;54.120;-4.710;2023-06-24T04:30:37;100251.15;;;29.11;24.21
80500;BME280;69823;54.120;-4.710;2023-06-24T04:33:03;100257.71;;;29.30;24.24
80500;BME280;69823;54.120;-4.710;2023-06-24T04:35:29;100260.79;;;29.31;24.23
80500;BME280;69823;54.120;-4.710;2023-06-24T04:37:54;100262.74;;;29.08;24.21
80500;BME280;69823;54.120;-4.710;2023-06-24T04:40:20;100265.57;;;29.07;24.22
80500;BME280;69823;54.120;-4.710;2023-06-24T04:42:46;100266.94;;;29.31;24.22
80500;BME280;69823;54.120;-4.710;2023-06-24T04:45:11;100265.99;;;29.07;24.21
80500;BME280;69823;54.120;-4.710;2023-06-24T04:47:37;100263.40;;;29.30;24.22
80500;BME280;69823;54.120;-4.710;2023-06-24T04:50:03;100264.20;;;29.06;24.22
80500;BME280;69823;54.120;-4.710;2023-06-24T04:52:28;100270.07;;;29.29;24.22
80500;BME280;69823;54.120;-4.710;2023-06-24T04:54:54;100272.19;;;29.25;24.24
80500;BME280;69823;54.120;-4.710;2023-06-24T04:57:25;100268.11;;;29.24;24.26
80500;BME280;69823;54.120;-4.710;2023-06-24T04:59:45;100267.33;;;29.01;24.24
80500;BME280;69823;54.120;-4.710;2023-06-24T05:02:11;100269.46;;;29.01;24.23
80500;BME280;69823;54.120;-4.710;2023-06-24T05:04:37;100274.62;;;29.50;24.22
80500;BME280;69823;54.120;-4.710;2023-06-24T05:07:03;100281.05;;;29.23;24.23
80500;BME280;69823;54.120;-4.710;2023-06-24T05:09:28;100282.86;;;28.96;24.25
80500;BME280;69823;54.120;-4.710;2023-06-24T05:11:54;100275.65;;;29.21;24.23
80500;BME280;69823;54.120;-4.710;2023-06-24T05:14:19;100281.72;;;28.97;24.23
80500;BME280;69823;54.120;-4.710;2023-06-24T05:16:45;100284.34;;;29.20;24.23
80500;BME280;69823;54.120;-4.710;2023-06-24T05:19:11;100281.95;;;29.20;24.22
80500;BME280;69823;54.120;-4.710;2023-06-24T05:21:36;100286.77;;;28.99;24.20
80500;BME280;69823;54.120;-4.710;2023-06-24T05:24:02;100288.34;;;29.43;24.22
80500;BME280;69823;54.120;-4.710;2023-06-24T05:26:28;100292.72;;;29.17;24.23
80500;BME280;69823;54.120;-4.710;2023-06-24T05:28:53;100294.80;;;29.42;24.22
80500;BME280;69823;54.120;-4.710;2023-06-24T05:31:19;100295.75;;;29.21;24.19
80500;BME280;69823;54.120;-4.710;2023-06-24T05:33:45;100298.66;;;28.96;24.20
80500;BME280;69823;54.120;-4.710;2023-06-24T05:36:10;100303.78;;;29.19;24.20
80500;BME280;69823;54.120;-4.710;2023-06-24T05:38:36;100307.04;;;29.17;24.21
80500;BME280;69823;54.120;-4.710;2023-06-24T05:41:02;100302.28;;;28.92;24.22
80500;BME280;69823;54.120;-4.710;2023-06-24T05:43:27;100295.64;;;29.41;24.21
80500;BME280;69823;54.120;-4.710;2023-06-24T05:45:53;100299.72;;;29.17;24.20
80500;BME280;69823;54.120;-4.710;2023-06-24T05:48:19;100301.41;;;29.17;24.20
80500;BME280;69823;54.120;-4.710;2023-06-24T05:50:44;100302.34;;;29.15;24.20
80500;BME280;69823;54.120;-4.710;2023-06-24T05:53:10;100300.21;;;29.14;24.22
80500;BME280;69823;54.120;-4.710;2023-06-24T05:55:36;100293.03;;;28.92;24.20
80500;BME280;69823;54.120;-4.710;2023-06-24T05:58:02;100289.57;;;29.15;24.20
80500;BME280;69823;54.120;-4.710;2023-06-24T06:00:27;100290.28;;;29.10;24.24
80500;BME280;69823;54.120;-4.710;2023-06-24T06:02:53;100291.41;;;28.82;24.28
80500;BME280;69823;54.120;-4.710;2023-06-24T06:05:19;100292.70;;;28.77;24.33
80500;BME280;69823;54.120;-4.710;2023-06-24T06:07:44;100289.46;;;29.02;24.31
80500;BME280;69823;54.120;-4.710;2023-06-24T06:10:10;100290.91;;;28.81;24.29
80500;BME280;69823;54.120;-4.710;2023-06-24T06:12:36;100292.67;;;28.83;24.28
80500;BME280;69823;54.120;-4.710;2023-06-24T06:15:02;100299.39;;;29.06;24.29
80500;BME280;69823;54.120;-4.710;2023-06-24T06:17:27;100299.49;;;28.77;24.32
80500;BME280;69823;54.120;-4.710;2023-06-24T06:19:53;100300.87;;;28.78;24.32
80500;BME280;69823;54.120;-4.710;2023-06-24T06:22:18;100300.08;;;29.03;24.33
80500;BME280;69823;54.120;-4.710;2023-06-24T06:24:44;100303.74;;;29.25;24.33
80500;BME280;69823;54.120;-4.710;2023-06-24T06:27:10;100305.97;;;29.02;24.32
80500;BME280;69823;54.120;-4.710;2023-06-24T06:29:35;100313.41;;;29.04;24.31
80500;BME280;69823;54.120;-4.710;2023-06-24T06:32:01;100310.37;;;29.07;24.27
80500;BME280;69823;54.120;-4.710;2023-06-24T06:34:27;100312.37;;;29.05;24.28
80500;BME280;69823;54.120;-4.710;2023-06-24T06:36:53;100316.89;;;29.28;24.30
80500;BME280;69823;54.120;-4.710;2023-06-24T06:39:18;100311.82;;;29.05;24.29
80500;BME280;69823;54.120;-4.710;2023-06-24T06:41:44;100315.54;;;29.04;24.29
80500;BME280;69823;54.120;-4.710;2023-06-24T06:44:10;100317.89;;;29.02;24.30
80500;BME280;69823;54.120;-4.710;2023-06-24T06:46:35;100320.42;;;29.24;24.33
80500;BME280;69823;54.120;-4.710;2023-06-24T06:49:01;100324.23;;;28.96;24.37
80500;BME280;69823;54.120;-4.710;2023-06-24T06:51:27;100326.04;;;28.94;24.37
80500;BME280;69823;54.120;-4.710;2023-06-24T06:53:52;100325.12;;;29.21;24.35
80500;BME280;69823;54.120;-4.710;2023-06-24T06:56:18;100323.52;;;29.19;24.37
80500;BME280;69823;54.120;-4.710;2023-06-24T06:58:44;100323.20;;;28.71;24.37
80500;BME280;69823;54.120;-4.710;2023-06-24T07:01:09;100322.94;;;29.20;24.37
80500;BME280;69823;54.120;-4.710;2023-06-24T07:03:35;100326.99;;;28.99;24.34
80500;BME280;69823;54.120;-4.710;2023-06-24T07:06:01;100325.70;;;28.77;24.32
80500;BME280;69823;54.120;-4.710;2023-06-24T07:08:26;100325.01;;;28.78;24.32
80500;BME280;69823;54.120;-4.710;2023-06-24T07:10:52;100329.03;;;28.80;24.28
80500;BME280;69823;54.120;-4.710;2023-06-24T07:13:18;100330.15;;;29.00;24.32
80500;BME280;69823;54.120;-4.710;2023-06-24T07:15:44;100334.12;;;28.95;24.36
80500;BME280;69823;54.120;-4.710;2023-06-24T07:18:09;100332.51;;;29.15;24.39
80500;BME280;69823;54.120;-4.710;2023-06-24T07:20:35;100339.12;;;28.90;24.41
80500;BME280;69823;54.120;-4.710;2023-06-24T07:23:01;100345.51;;;28.90;24.42
80500;BME280;69823;54.120;-4.710;2023-06-24T07:25:26;100349.36;;;28.65;24.44
80500;BME280;69823;54.120;-4.710;2023-06-24T07:27:52;100353.69;;;28.88;24.44
80500;BME280;69823;54.120;-4.710;2023-06-24T07:30:18;100353.04;;;28.66;24.43
80500;BME280;69823;54.120;-4.710;2023-06-24T07:32:43;100356.55;;;29.13;24.43
80500;BME280;69823;54.120;-4.710;2023-06-24T07:35:09;100349.93;;;28.86;24.45
80500;BME280;69823;54.120;-4.710;2023-06-24T07:37:35;100353.75;;;28.65;24.44
80500;BME280;69823;54.120;-4.710;2023-06-24T07:40:00;100359.57;;;29.13;24.44
80500;BME280;69823;54.120;-4.710;2023-06-24T07:42:26;100352.96;;;28.63;24.45
80500;BME280;69823;54.120;-4.710;2023-06-24T07:44:52;100356.15;;;28.91;24.41
80500;BME280;69823;54.120;-4.710;2023-06-24T07:47:17;100344.85;;;28.91;24.42
80500;BME280;69823;54.120;-4.710;2023-06-24T07:49:43;100349.53;;;28.92;24.41
80500;BME280;69823;54.120;-4.710;2023-06-24T07:52:09;100356.28;;;28.89;24.44
80500;BME280;69823;54.120;-4.710;2023-06-24T07:54:34;100357.00;;;28.89;24.44
80500;BME280;69823;54.120;-4.710;2023-06-24T07:57:00;100359.27;;;28.62;24.45
80500;BME280;69823;54.120;-4.710;2023-06-24T07:59:26;100352.71;;;28.88;24.46
80500;BME280;69823;54.120;-4.710;2023-06-24T08:01:51;100352.94;;;28.85;24.47
80500;BME280;69823;54.120;-4.710;2023-06-24T08:04:17;100354.85;;;29.10;24.47
80500;BME280;69823;54.120;-4.710;2023-06-24T08:06:43;100357.34;;;29.07;24.47
80500;BME280;69823;54.120;-4.710;2023-06-24T08:09:08;100358.39;;;29.10;24.47
80500;BME280;69823;54.120;-4.710;2023-06-24T08:11:34;100357.75;;;28.63;24.45
80500;BME280;69823;54.120;-4.710;2023-06-24T08:14:00;100360.77;;;28.94;24.42
80500;BME280;69823;54.120;-4.710;2023-06-24T08:16:25;100361.94;;;28.66;24.47
80500;BME280;69823;54.120;-4.710;2023-06-24T08:18:51;100363.76;;;28.96;24.48
80500;BME280;69823;54.120;-4.710;2023-06-24T08:21:17;100358.88;;;29.23;24.52
80500;BME280;69823;54.120;-4.710;2023-06-24T08:23:42;100356.13;;;29.26;24.54
80500;BME280;69823;54.120;-4.710;2023-06-24T08:26:08;100354.81;;;28.82;24.55
80500;BME280;69823;54.120;-4.710;2023-06-24T08:28:34;100353.84;;;29.30;24.52
80500;BME280;69823;54.120;-4.710;2023-06-24T08:31:00;100355.57;;;29.08;24.47
80500;BME280;69823;54.120;-4.710;2023-06-24T08:33:25;100356.30;;;29.06;24.50
80500;BME280;69823;54.120;-4.710;2023-06-24T08:35:51;100362.39;;;29.04;24.52
80500;BME280;69823;54.120;-4.710;2023-06-24T08:38:17;100366.12;;;29.25;24.51
80500;BME280;69823;54.120;-4.710;2023-06-24T08:40:44;100370.09;;;28.77;24.52
80500;BME280;69823;54.120;-4.710;2023-06-24T08:43:08;100377.26;;;28.77;24.53
80500;BME280;69823;54.120;-4.710;2023-06-24T08:45:34;100379.86;;;29.06;24.49
80500;BME280;69823;54.120;-4.710;2023-06-24T08:48:00;100378.55;;;28.86;24.50
80500;BME280;69823;54.120;-4.710;2023-06-24T08:50:27;100375.81;;;29.13;24.50
80500;BME280;69823;54.120;-4.710;2023-06-24T08:52:51;100371.90;;;29.15;24.54
80500;BME280;69823;54.120;-4.710;2023-06-24T08:55:17;100380.18;;;29.13;24.56
80500;BME280;69823;54.120;-4.710;2023-06-24T08:57:42;100380.37;;;28.88;24.59
80500;BME280;69823;54.120;-4.710;2023-06-24T09:00:08;100382.80;;;29.08;24.62
80500;BME280;69823;54.120;-4.710;2023-06-24T09:02:33;100385.13;;;28.79;24.66
80500;BME280;69823;54.120;-4.710;2023-06-24T09:04:59;100384.58;;;28.98;24.69
80500;BME280;69823;54.120;-4.710;2023-06-24T09:07:27;100382.56;;;29.20;24.71
80500;BME280;69823;54.120;-4.710;2023-06-24T09:09:50;100380.51;;;28.96;24.71
80500;BME280;69823;54.120;-4.710;2023-06-24T09:12:16;100384.77;;;28.74;24.71
80500;BME280;69823;54.120;-4.710;2023-06-24T09:14:47;100387.37;;;28.73;24.70
80500;BME280;69823;54.120;-4.710;2023-06-24T09:17:08;100387.14;;;28.73;24.69
80500;BME280;69823;54.120;-4.710;2023-06-24T09:19:33;100388.51;;;28.97;24.69
80500;BME280;69823;54.120;-4.710;2023-06-24T09:22:02;100383.21;;;28.99;24.67
80500;BME280;69823;54.120;-4.710;2023-06-24T09:24:27;100384.41;;;28.99;24.68
80500;BME280;69823;54.120;-4.710;2023-06-24T09:26:50;100383.84;;;28.75;24.69
80500;BME280;69823;54.120;-4.710;2023-06-24T09:29:16;100380.27;;;28.73;24.68
80500;BME280;69823;54.120;-4.710;2023-06-24T09:31:48;100380.85;;;29.21;24.69
80500;BME280;69823;54.120;-4.710;2023-06-24T09:34:12;100380.44;;;28.99;24.69
80500;BME280;69823;54.120;-4.710;2023-06-24T09:36:33;100382.99;;;28.95;24.76
80500;BME280;69823;54.120;-4.710;2023-06-24T09:39:05;100382.18;;;28.96;24.77
80500;BME280;69823;54.120;-4.710;2023-06-24T09:41:24;100382.71;;;28.97;24.75
80500;BME280;69823;54.120;-4.710;2023-06-24T09:43:50;100381.38;;;29.20;24.76
80500;BME280;69823;54.120;-4.710;2023-06-24T09:46:15;100388.26;;;28.96;24.73
80500;BME280;69823;54.120;-4.710;2023-06-24T09:48:42;100391.46;;;28.73;24.74
80500;BME280;69823;54.120;-4.710;2023-06-24T09:51:08;100386.48;;;28.96;24.75
80500;BME280;69823;54.120;-4.710;2023-06-24T09:53:34;100387.07;;;29.22;24.74
80500;BME280;69823;54.120;-4.710;2023-06-24T09:55:59;100386.71;;;28.97;24.75
80500;BME280;69823;54.120;-4.710;2023-06-24T09:58:24;100387.23;;;28.75;24.75
80500;BME280;69823;54.120;-4.710;2023-06-24T10:00:50;100385.51;;;28.77;24.73
80500;BME280;69823;54.120;-4.710;2023-06-24T10:03:15;100385.07;;;29.24;24.75
80500;BME280;69823;54.120;-4.710;2023-06-24T10:05:41;100388.18;;;29.01;24.75
80500;BME280;69823;54.120;-4.710;2023-06-24T10:08:07;100390.03;;;29.01;24.77
80500;BME280;69823;54.120;-4.710;2023-06-24T10:10:33;100389.97;;;28.79;24.87
80500;BME280;69823;54.120;-4.710;2023-06-24T10:12:58;100392.76;;;28.78;24.95
80500;BME280;69823;54.120;-4.710;2023-06-24T10:15:23;100390.69;;;29.04;24.91
80500;BME280;69823;54.120;-4.710;2023-06-24T10:17:50;100395.23;;;28.80;24.93
80500;BME280;69823;54.120;-4.710;2023-06-24T10:20:24;100397.29;;;29.07;24.89
80500;BME280;69823;54.120;-4.710;2023-06-24T10:22:45;100394.63;;;29.08;25.00
80500;BME280;69823;54.120;-4.710;2023-06-24T10:25:06;100394.93;;;29.08;25.04
80500;BME280;69823;54.120;-4.710;2023-06-24T10:27:38;100388.77;;;28.86;25.02
80500;BME280;69823;54.120;-4.710;2023-06-24T10:30:02;100391.10;;;29.13;25.03
80500;BME280;69823;54.120;-4.710;2023-06-24T10:32:23;100388.28;;;28.92;25.04
80500;BME280;69823;54.120;-4.710;2023-06-24T10:34:54;100387.21;;;28.95;25.01
80500;BME280;69823;54.120;-4.710;2023-06-24T10:37:17;100387.58;;;28.92;25.07
80500;BME280;69823;54.120;-4.710;2023-06-24T10:39:45;100390.48;;;28.99;25.01
80500;BME280;69823;54.120;-4.710;2023-06-24T10:46:55;100386.29;;;29.33;24.99
80500;BME280;69823;54.120;-4.710;2023-06-24T10:49:21;100386.33;;;29.05;24.98
80500;BME280;69823;54.120;-4.710;2023-06-24T10:51:46;100386.05;;;29.28;25.03
80500;BME280;69823;54.120;-4.710;2023-06-24T10:54:12;100384.80;;;29.28;25.04
80500;BME280;69823;54.120;-4.710;2023-06-24T10:56:38;100378.79;;;29.06;25.10
80500;BME280;69823;54.120;-4.710;2023-06-24T10:59:03;100382.60;;;29.07;25.13
80500;BME280;69823;54.120;-4.710;2023-06-24T11:01:28;100384.73;;;29.13;25.06
80500;BME280;69823;54.120;-4.710;2023-06-24T11:03:53;100381.45;;;29.10;25.04
80500;BME280;69823;54.120;-4.710;2023-06-24T11:06:18;100382.17;;;29.11;25.03
80500;BME280;69823;54.120;-4.710;2023-06-24T11:08:44;100385.99;;;28.90;25.03
80500;BME280;69823;54.120;-4.710;2023-06-24T11:11:19;100385.86;;;29.21;24.96
80500;BME280;69823;54.120;-4.710;2023-06-24T11:13:34;100387.63;;;29.26;24.90
80500;BME280;69823;54.120;-4.710;2023-06-24T11:16:00;100386.40;;;29.31;24.82
80500;BME280;69823;54.120;-4.710;2023-06-24T11:18:25;100385.91;;;29.59;24.77
80500;BME280;69823;54.120;-4.710;2023-06-24T11:20:54;100386.71;;;29.29;24.77
80500;BME280;69823;54.120;-4.710;2023-06-24T11:23:16;100381.11;;;29.22;24.78
80500;BME280;69823;54.120;-4.710;2023-06-24T11:25:43;100378.05;;;29.15;24.85
80500;BME280;69823;54.120;-4.710;2023-06-24T11:28:14;100380.02;;;29.12;24.89
80500;BME280;69823;54.120;-4.710;2023-06-24T11:30:34;100381.37;;;29.06;24.97
80500;BME280;69823;54.120;-4.710;2023-06-24T11:32:58;100380.64;;;29.06;24.99
80500;BME280;69823;54.120;-4.710;2023-06-24T11:35:23;100378.66;;;29.03;25.04
80500;BME280;69823;54.120;-4.710;2023-06-24T11:37:48;100377.93;;;29.26;25.10
80500;BME280;69823;54.120;-4.710;2023-06-24T11:40:16;100379.58;;;29.50;25.18
80500;BME280;69823;54.120;-4.710;2023-06-24T11:42:40;100388.37;;;29.01;25.21
80500;BME280;69823;54.120;-4.710;2023-06-24T11:45:07;100387.67;;;28.98;25.27
80500;BME280;69823;54.120;-4.710;2023-06-24T11:47:32;100387.02;;;28.96;25.38
80500;BME280;69823;54.120;-4.710;2023-06-24T11:49:56;100390.64;;;29.17;25.43
80500;BME280;69823;54.120;-4.710;2023-06-24T11:52:31;100392.75;;;28.73;25.39
80500;BME280;69823;54.120;-4.710;2023-06-24T11:54:51;100394.53;;;28.98;25.41
80500;BME280;69823;54.120;-4.710;2023-06-24T11:57:13;100395.19;;;29.19;25.45
80500;BME280;69823;54.120;-4.710;2023-06-24T11:59:38;100395.28;;;29.00;25.41
80500;BME280;69823;54.120;-4.710;2023-06-24T12:02:04;100390.35;;;28.99;25.41
80500;BME280;69823;54.120;-4.710;2023-06-24T12:04:29;100383.46;;;28.97;25.45
80500;BME280;69823;54.120;-4.710;2023-06-24T12:06:55;100388.53;;;29.19;25.50
80500;BME280;69823;54.120;-4.710;2023-06-24T12:09:20;100381.85;;;28.93;25.49
80500;BME280;69823;54.120;-4.710;2023-06-24T12:11:46;100387.55;;;28.94;25.53
80500;BME280;69823;54.120;-4.710;2023-06-24T12:14:11;100383.39;;;28.93;25.54
80500;BME280;69823;54.120;-4.710;2023-06-24T12:16:38;100381.00;;;29.15;25.55
80500;BME280;69823;54.120;-4.710;2023-06-24T12:19:02;100379.56;;;28.90;25.55
80500;BME280;69823;54.120;-4.710;2023-06-24T12:21:27;100379.51;;;28.89;25.54
80500;BME280;69823;54.120;-4.710;2023-06-24T12:23:53;100380.87;;;29.10;25.56
80500;BME280;69823;54.120;-4.710;2023-06-24T12:26:19;100379.75;;;28.88;25.53
80500;BME280;69823;54.120;-4.710;2023-06-24T12:28:44;100374.68;;;28.89;25.49
80500;BME280;69823;54.120;-4.710;2023-06-24T12:31:10;100371.98;;;28.89;25.48
80500;BME280;69823;54.120;-4.710;2023-06-24T12:33:35;100371.67;;;29.31;25.52
80500;BME280;69823;54.120;-4.710;2023-06-24T12:36:01;100379.39;;;28.62;25.50
80500;BME280;69823;54.120;-4.710;2023-06-24T12:38:26;100380.08;;;28.84;25.52
80500;BME280;69823;54.120;-4.710;2023-06-24T12:40:52;100379.67;;;28.85;25.53